sensor_id;sensor_type;location;lat;lon;timestamp;temperature;humidity
46364;DHT22;32071;49.036;9.344;2022-08-21T00:01:59;13.90;99.90
46364;DHT22;32071;49.036;9.344;2022-08-21T00:04:25;14.00;99.90
46364;DHT22;32071;49.036;9.344;2022-08-21T00:06:51;13.90;99.90
46364;DHT22;32071;49.036;9.344;2022-08-21T00:09:19;13.90;99.90
46364;DHT22;32071;49.036;9.344;2022-08-21T00:11:45;13.80;99.90
46364;DHT22;32071;49.036;9.344;2022-08-21T00:14:14;13.70;99.90
46364;DHT22;32071;49.036;9.344;2022-08-21T00:16:40;13.70;99.90
46364;DHT22;32071;49.036;9.344;2022-08-21T00:19:07;13.70;99.90
46364;DHT22;32071;49.036;9.344;2022-08-21T00:21:33;13.70;99.90
46364;DHT22;32071;49.036;9.344;2022-08-21T00:24:00;13.70;99.90
46364;DHT22;32071;49.036;9.344;2022-08-21T00:26:25;13.70;99.90
46364;DHT22;32071;49.036;9.344;2022-08-21T00:28:52;13.70;99.90
46364;DHT22;32071;49.036;9.344;2022-08-21T00:31:17;13.60;99.90
46364;DHT22;32071;49.036;9.344;2022-08-21T00:33:44;13.60;99.90
46364;DHT22;32071;49.036;9.344;2022-08-21T00:36:11;13.70;99.90
46364;DHT22;32071;49.036;9.344;2022-08-21T00:38:36;13.70;99.90
46364;DHT22;32071;49.036;9.344;2022-08-21T00:41:05;13.70;99.90
46364;DHT22;32071;49.036;9.344;2022-08-21T00:43:33;13.60;99.90
46364;DHT22;32071;49.036;9.344;2022-08-21T00:45:59;13.60;99.90
46364;DHT22;32071;49.036;9.344;2022-08-21T00:48:26;13.50;99.90
46364;DHT22;32071;49.036;9.344;2022-08-21T00:50:58;13.50;99.90
46364;DHT22;32071;49.036;9.344;2022-08-21T00:53:25;13.50;99.90
46364;DHT22;32071;49.036;9.344;2022-08-21T00:55:52;13.50;99.90
46364;DHT22;32071;49.036;9.344;2022-08-21T00:58:18;13.40;99.90
46364;DHT22;32071;49.036;9.344;2022-08-21T01:00:46;13.40;99.90
46364;DHT22;32071;49.036;9.344;2022-08-21T01:03:16;13.40;99.90
46364;DHT22;32071;49.036;9.344;2022-08-21T01:05:43;13.40;99.90
46364;DHT22;32071;49.036;9.344;2022-08-21T01:08:10;13.40;99.90
46364;DHT22;32071;49.036;9.344;2022-08-21T01:10:37;13.40;99.90
46364;DHT22;32071;49.036;9.344;2022-08-21T01:13:07;13.40;99.90
46364;DHT22;32071;49.036;9.344;2022-08-21T01:15:38;13.30;99.90
46364;DHT22;32071;49.036;9.344;2022-08-21T01:18:05;13.30;99.90
46364;DHT22;32071;49.036;9.344;2022-08-21T01:20:33;13.20;99.90
46364;DHT22;32071;49.036;9.344;2022-08-21T01:23:02;13.20;99.90
46364;DHT22;32071;49.036;9.344;2022-08-21T01:25:28;13.20;99.90
46364;DHT22;32071;49.036;9.344;2022-08-21T01:27:54;13.20;99.90
46364;DHT22;32071;49.036;9.344;2022-08-21T01:30:23;13.30;99.90
46364;DHT22;32071;49.036;9.344;2022-08-21T01:32:50;13.30;99.90
46364;DHT22;32071;49.036;9.344;2022-08-21T01:35:17;13.20;99.90
46364;DHT22;32071;49.036;9.344;2022-08-21T01:37:44;13.20;99.90
46364;DHT22;32071;49.036;9.344;2022-08-21T01:40:11;13.20;99.90
46364;DHT22;32071;49.036;9.344;2022-08-21T01:42:38;13.10;99.90
46364;DHT22;32071;49.036;9.344;2022-08-21T01:45:05;13.10;99.90
46364;DHT22;32071;49.036;9.344;2022-08-21T01:47:31;13.10;99.90
46364;DHT22;32071;49.036;9.344;2022-08-21T01:49:58;13.00;99.90
46364;DHT22;32071;49.036;9.344;2022-08-21T01:52:24;13.00;99.90
46364;DHT22;32071;49.036;9.344;2022-08-21T01:54:49;13.00;99.90
46364;DHT22;32071;49.036;9.344;2022-08-21T01:57:15;13.00;99.90
46364;DHT22;32071;49.036;9.344;2022-08-21T01:59:40;12.90;99.90
46364;DHT22;32071;49.036;9.344;2022-08-21T02:02:07;12.90;99.90
46364;DHT22;32071;49.036;9.344;2022-08-21T02:04:33;12.90;99.90
46364;DHT22;32071;49.036;9.344;2022-08-21T02:07:00;12.90;99.90
46364;DHT22;32071;49.036;9.344;2022-08-21T02:09:26;12.80;99.90
46364;DHT22;32071;49.036;9.344;2022-08-21T02:11:52;12.80;99.90
46364;DHT22;32071;49.036;9.344;2022-08-21T02:14:18;12.80;99.90
46364;DHT22;32071;49.036;9.344;2022-08-21T02:16:44;12.80;99.90
46364;DHT22;32071;49.036;9.344;2022-08-21T02:19:12;12.80;99.90
46364;DHT22;32071;49.036;9.344;2022-08-21T02:21:38;12.70;99.90
46364;DHT22;32071;49.036;9.344;2022-08-21T02:24:05;12.70;99.90
46364;DHT22;32071;49.036;9.344;2022-08-21T02:26:31;12.70;99.90
46364;DHT22;32071;49.036;9.344;2022-08-21T02:28:56;12.60;99.90
46364;DHT22;32071;49.036;9.344;2022-08-21T02:31:22;12.60;99.90
46364;DHT22;32071;49.036;9.344;2022-08-21T02:33:48;12.60;99.90
46364;DHT22;32071;49.036;9.344;2022-08-21T02:36:13;12.60;99.90
46364;DHT22;32071;49.036;9.344;2022-08-21T02:38:41;12.60;99.90
46364;DHT22;32071;49.036;9.344;2022-08-21T02:41:09;12.60;99.90
46364;DHT22;32071;49.036;9.344;2022-08-21T02:43:36;12.60;99.90
46364;DHT22;32071;49.036;9.344;2022-08-21T02:46:03;12.60;99.90
46364;DHT22;32071;49.036;9.344;2022-08-21T02:48:31;12.60;99.90
46364;DHT22;32071;49.036;9.344;2022-08-21T02:50:59;12.60;99.90
46364;DHT22;32071;49.036;9.344;2022-08-21T02:53:26;12.50;99.90
46364;DHT22;32071;49.036;9.344;2022-08-21T02:55:53;12.50;99.90
46364;DHT22;32071;49.036;9.344;2022-08-21T02:58:24;12.50;99.90
46364;DHT22;32071;49.036;9.344;2022-08-21T03:00:50;12.50;99.90
46364;DHT22;32071;49.036;9.344;2022-08-21T03:03:16;12.50;99.90
46364;DHT22;32071;49.036;9.344;2022-08-21T03:05:43;12.40;99.90
46364;DHT22;32071;49.036;9.344;2022-08-21T03:08:11;12.40;99.90
46364;DHT22;32071;49.036;9.344;2022-08-21T03:10:43;12.40;99.90
46364;DHT22;32071;49.036;9.344;2022-08-21T03:13:09;12.50;99.90
46364;DHT22;32071;49.036;9.344;2022-08-21T03:15:36;12.50;99.90
46364;DHT22;32071;49.036;9.344;2022-08-21T03:18:03;12.50;99.90
46364;DHT22;32071;49.036;9.344;2022-08-21T03:20:30;12.50;99.90
46364;DHT22;32071;49.036;9.344;2022-08-21T03:22:56;12.50;99.90
46364;DHT22;32071;49.036;9.344;2022-08-21T03:25:23;12.40;99.90
46364;DHT22;32071;49.036;9.344;2022-08-21T03:27:49;12.40;99.90
46364;DHT22;32071;49.036;9.344;2022-08-21T03:30:16;12.40;99.90
46364;DHT22;32071;49.036;9.344;2022-08-21T03:32:42;12.30;99.90
46364;DHT22;32071;49.036;9.344;2022-08-21T03:35:08;12.30;99.90
46364;DHT22;32071;49.036;9.344;2022-08-21T03:37:34;12.30;99.90
46364;DHT22;32071;49.036;9.344;2022-08-21T03:40:00;12.30;99.90
46364;DHT22;32071;49.036;9.344;2022-08-21T03:42:25;12.30;99.90
46364;DHT22;32071;49.036;9.344;2022-08-21T03:44:51;12.30;99.90
46364;DHT22;32071;49.036;9.344;2022-08-21T03:47:17;12.30;99.90
46364;DHT22;32071;49.036;9.344;2022-08-21T03:49:42;12.20;99.90
46364;DHT22;32071;49.036;9.344;2022-08-21T03:52:08;12.20;99.90
46364;DHT22;32071;49.036;9.344;2022-08-21T03:54:33;12.20;99.90
46364;DHT22;32071;49.036;9.344;2022-08-21T03:56:59;12.20;99.90
46364;DHT22;32071;49.036;9.344;2022-08-21T03:59:25;12.20;99.90
46364;DHT22;32071;49.036;9.344;2022-08-21T04:01:53;12.20;99.90
46364;DHT22;32071;49.036;9.344;2022-08-21T04:04:19;12.20;99.90
46364;DHT22;32071;49.036;9.344;2022-08-21T04:06:44;12.20;99.90
46364;DHT22;32071;49.036;9.344;2022-08-21T04:09:10;12.20;99.90
46364;DHT22;32071;49.036;9.344;2022-08-21T04:11:35;12.20;99.90
46364;DHT22;32071;49.036;9.344;2022-08-21T04:14:02;12.20;99.90
46364;DHT22;32071;49.036;9.344;2022-08-21T04:16:28;12.20;99.90
46364;DHT22;32071;49.036;9.344;2022-08-21T04:18:53;12.20;99.90
46364;DHT22;32071;49.036;9.344;2022-08-21T04:21:19;12.20;99.90
46364;DHT22;32071;49.036;9.344;2022-08-21T04:23:44;12.20;99.90
46364;DHT22;32071;49.036;9.344;2022-08-21T04:26:10;12.20;99.90
46364;DHT22;32071;49.036;9.344;2022-08-21T04:28:35;12.10;99.90
46364;DHT22;32071;49.036;9.344;2022-08-21T04:31:01;12.10;99.90
46364;DHT22;32071;49.036;9.344;2022-08-21T04:33:27;12.10;99.90
46364;DHT22;32071;49.036;9.344;2022-08-21T04:35:52;12.10;99.90
46364;DHT22;32071;49.036;9.344;2022-08-21T04:38:18;12.20;99.90
46364;DHT22;32071;49.036;9.344;2022-08-21T04:40:44;12.10;99.90
46364;DHT22;32071;49.036;9.344;2022-08-21T04:43:10;12.20;99.90
46364;DHT22;32071;49.036;9.344;2022-08-21T04:45:37;12.20;99.90
46364;DHT22;32071;49.036;9.344;2022-08-21T04:48:06;12.20;99.90
46364;DHT22;32071;49.036;9.344;2022-08-21T04:53:55;12.30;99.90
46364;DHT22;32071;49.036;9.344;2022-08-21T04:56:33;12.30;99.90
46364;DHT22;32071;49.036;9.344;2022-08-21T04:59:04;12.30;99.90
46364;DHT22;32071;49.036;9.344;2022-08-21T05:01:33;12.30;99.90
46364;DHT22;32071;49.036;9.344;2022-08-21T05:04:02;12.30;99.90
46364;DHT22;32071;49.036;9.344;2022-08-21T05:06:32;12.40;99.90
46364;DHT22;32071;49.036;9.344;2022-08-21T05:08:58;12.40;99.90
46364;DHT22;32071;49.036;9.344;2022-08-21T05:11:24;12.50;99.90
46364;DHT22;32071;49.036;9.344;2022-08-21T05:13:50;12.50;99.90
46364;DHT22;32071;49.036;9.344;2022-08-21T05:16:16;12.50;99.90
46364;DHT22;32071;49.036;9.344;2022-08-21T05:18:42;12.60;99.90
46364;DHT22;32071;49.036;9.344;2022-08-21T05:21:08;12.60;99.90
46364;DHT22;32071;49.036;9.344;2022-08-21T05:23:35;12.60;99.90
46364;DHT22;32071;49.036;9.344;2022-08-21T05:26:00;12.70;99.90
46364;DHT22;32071;49.036;9.344;2022-08-21T05:28:26;12.70;99.90
46364;DHT22;32071;49.036;9.344;2022-08-21T05:30:52;12.80;99.90
46364;DHT22;32071;49.036;9.344;2022-08-21T05:33:18;12.90;99.90
46364;DHT22;32071;49.036;9.344;2022-08-21T05:35:43;12.90;99.90
46364;DHT22;32071;49.036;9.344;2022-08-21T05:38:09;13.00;99.90
46364;DHT22;32071;49.036;9.344;2022-08-21T05:40:34;13.10;99.90
46364;DHT22;32071;49.036;9.344;2022-08-21T05:43:00;13.20;99.90
46364;DHT22;32071;49.036;9.344;2022-08-21T05:45:30;13.30;99.90
46364;DHT22;32071;49.036;9.344;2022-08-21T05:47:56;13.40;99.90
46364;DHT22;32071;49.036;9.344;2022-08-21T05:50:22;13.50;99.90
46364;DHT22;32071;49.036;9.344;2022-08-21T05:52:47;13.60;99.90
46364;DHT22;32071;49.036;9.344;2022-08-21T05:55:13;13.70;99.90
46364;DHT22;32071;49.036;9.344;2022-08-21T05:57:39;13.80;99.90
46364;DHT22;32071;49.036;9.344;2022-08-21T06:00:07;13.80;99.90
46364;DHT22;32071;49.036;9.344;2022-08-21T06:02:35;13.90;99.90
46364;DHT22;32071;49.036;9.344;2022-08-21T06:05:01;14.00;99.90
46364;DHT22;32071;49.036;9.344;2022-08-21T06:07:26;14.10;99.90
46364;DHT22;32071;49.036;9.344;2022-08-21T06:09:52;14.20;99.90
46364;DHT22;32071;49.036;9.344;2022-08-21T06:12:17;14.30;99.90
46364;DHT22;32071;49.036;9.344;2022-08-21T06:14:43;14.40;99.90
46364;DHT22;32071;49.036;9.344;2022-08-21T06:17:11;14.50;99.90
46364;DHT22;32071;49.036;9.344;2022-08-21T06:19:38;14.60;99.90
46364;DHT22;32071;49.036;9.344;2022-08-21T06:22:04;14.60;99.90
46364;DHT22;32071;49.036;9.344;2022-08-21T06:24:30;14.70;99.90
46364;DHT22;32071;49.036;9.344;2022-08-21T06:26:56;14.90;99.90
46364;DHT22;32071;49.036;9.344;2022-08-21T06:29:22;14.90;99.90
46364;DHT22;32071;49.036;9.344;2022-08-21T06:31:49;15.00;99.90
46364;DHT22;32071;49.036;9.344;2022-08-21T06:34:15;15.10;99.90
46364;DHT22;32071;49.036;9.344;2022-08-21T06:36:41;15.20;99.90
46364;DHT22;32071;49.036;9.344;2022-08-21T06:39:07;15.30;99.90
46364;DHT22;32071;49.036;9.344;2022-08-21T06:41:33;15.30;99.90
46364;DHT22;32071;49.036;9.344;2022-08-21T06:43:58;15.40;99.90
46364;DHT22;32071;49.036;9.344;2022-08-21T06:46:26;15.50;99.90
46364;DHT22;32071;49.036;9.344;2022-08-21T06:48:52;15.60;99.90
46364;DHT22;32071;49.036;9.344;2022-08-21T06:51:18;15.70;99.90
46364;DHT22;32071;49.036;9.344;2022-08-21T06:53:44;15.70;99.90
46364;DHT22;32071;49.036;9.344;2022-08-21T06:56:09;15.80;99.90
46364;DHT22;32071;49.036;9.344;2022-08-21T06:58:35;15.90;99.90
46364;DHT22;32071;49.036;9.344;2022-08-21T07:01:01;16.10;99.90
46364;DHT22;32071;49.036;9.344;2022-08-21T07:03:30;16.20;99.90
46364;DHT22;32071;49.036;9.344;2022-08-21T07:05:56;16.30;99.90
46364;DHT22;32071;49.036;9.344;2022-08-21T07:08:26;16.50;99.90
46364;DHT22;32071;49.036;9.344;2022-08-21T07:10:53;16.60;99.90
46364;DHT22;32071;49.036;9.344;2022-08-21T07:13:20;16.70;99.90
46364;DHT22;32071;49.036;9.344;2022-08-21T07:15:45;16.80;99.90
46364;DHT22;32071;49.036;9.344;2022-08-21T07:18:11;16.90;99.90
46364;DHT22;32071;49.036;9.344;2022-08-21T07:20:38;17.00;99.90
46364;DHT22;32071;49.036;9.344;2022-08-21T07:23:08;17.10;99.90
46364;DHT22;32071;49.036;9.344;2022-08-21T07:25:34;17.10;99.90
46364;DHT22;32071;49.036;9.344;2022-08-21T07:27:59;17.10;99.90
46364;DHT22;32071;49.036;9.344;2022-08-21T07:30:26;17.30;99.90
46364;DHT22;32071;49.036;9.344;2022-08-21T07:32:51;17.30;99.90
46364;DHT22;32071;49.036;9.344;2022-08-21T07:35:19;17.50;99.90
46364;DHT22;32071;49.036;9.344;2022-08-21T07:37:45;17.50;99.90
46364;DHT22;32071;49.036;9.344;2022-08-21T07:40:11;17.60;99.90
46364;DHT22;32071;49.036;9.344;2022-08-21T07:42:42;17.70;99.90
46364;DHT22;32071;49.036;9.344;2022-08-21T07:45:09;17.80;99.90
46364;DHT22;32071;49.036;9.344;2022-08-21T07:47:34;17.90;99.90
46364;DHT22;32071;49.036;9.344;2022-08-21T07:50:00;18.00;99.90
46364;DHT22;32071;49.036;9.344;2022-08-21T07:52:26;18.10;99.90
46364;DHT22;32071;49.036;9.344;2022-08-21T07:54:52;18.20;99.90
46364;DHT22;32071;49.036;9.344;2022-08-21T07:57:18;18.30;99.90
46364;DHT22;32071;49.036;9.344;2022-08-21T07:59:44;18.40;99.90
46364;DHT22;32071;49.036;9.344;2022-08-21T08:02:09;18.40;99.90
46364;DHT22;32071;49.036;9.344;2022-08-21T08:04:35;18.50;99.90
46364;DHT22;32071;49.036;9.344;2022-08-21T08:07:00;18.60;99.90
46364;DHT22;32071;49.036;9.344;2022-08-21T08:09:26;18.70;99.90
46364;DHT22;32071;49.036;9.344;2022-08-21T08:11:51;18.80;99.90
46364;DHT22;32071;49.036;9.344;2022-08-21T08:14:17;19.00;99.90
46364;DHT22;32071;49.036;9.344;2022-08-21T08:16:42;19.10;99.90
46364;DHT22;32071;49.036;9.344;2022-08-21T08:19:08;19.10;99.90
46364;DHT22;32071;49.036;9.344;2022-08-21T08:21:34;19.20;99.90
46364;DHT22;32071;49.036;9.344;2022-08-21T08:24:00;19.30;99.90
46364;DHT22;32071;49.036;9.344;2022-08-21T08:26:26;19.40;99.90
46364;DHT22;32071;49.036;9.344;2022-08-21T08:28:51;19.50;99.90
46364;DHT22;32071;49.036;9.344;2022-08-21T08:31:17;19.60;99.90
46364;DHT22;32071;49.036;9.344;2022-08-21T08:33:43;19.70;99.90
46364;DHT22;32071;49.036;9.344;2022-08-21T08:36:18;19.70;99.90
46364;DHT22;32071;49.036;9.344;2022-08-21T08:38:45;19.90;99.90
46364;DHT22;32071;49.036;9.344;2022-08-21T08:41:19;20.00;99.90
46364;DHT22;32071;49.036;9.344;2022-08-21T08:43:53;20.10;99.90
46364;DHT22;32071;49.036;9.344;2022-08-21T08:49:06;20.20;99.90
46364;DHT22;32071;49.036;9.344;2022-08-21T08:51:52;20.30;99.90
46364;DHT22;32071;49.036;9.344;2022-08-21T08:54:29;20.50;99.90
46364;DHT22;32071;49.036;9.344;2022-08-21T08:57:00;20.50;99.90
46364;DHT22;32071;49.036;9.344;2022-08-21T08:59:35;20.60;99.90
46364;DHT22;32071;49.036;9.344;2022-08-21T09:02:01;20.70;99.90
46364;DHT22;32071;49.036;9.344;2022-08-21T09:04:28;20.90;99.90
46364;DHT22;32071;49.036;9.344;2022-08-21T09:06:57;21.00;99.90
46364;DHT22;32071;49.036;9.344;2022-08-21T09:12:28;21.40;99.90
46364;DHT22;32071;49.036;9.344;2022-08-21T09:15:19;21.60;99.90
46364;DHT22;32071;49.036;9.344;2022-08-21T09:17:54;21.70;99.90
46364;DHT22;32071;49.036;9.344;2022-08-21T09:20:44;21.70;99.90
46364;DHT22;32071;49.036;9.344;2022-08-21T09:23:31;21.80;99.90
46364;DHT22;32071;49.036;9.344;2022-08-21T09:26:18;21.90;99.90
46364;DHT22;32071;49.036;9.344;2022-08-21T09:28:45;22.00;99.90
46364;DHT22;32071;49.036;9.344;2022-08-21T09:33:47;22.30;99.80
46364;DHT22;32071;49.036;9.344;2022-08-21T09:36:24;22.30;99.90
46364;DHT22;32071;49.036;9.344;2022-08-21T09:38:54;22.40;99.40
46364;DHT22;32071;49.036;9.344;2022-08-21T09:41:28;22.40;99.10
46364;DHT22;32071;49.036;9.344;2022-08-21T09:43:54;22.50;98.00
46364;DHT22;32071;49.036;9.344;2022-08-21T09:46:22;22.50;97.90
46364;DHT22;32071;49.036;9.344;2022-08-21T09:48:52;22.70;98.50
46364;DHT22;32071;49.036;9.344;2022-08-21T09:51:22;22.90;97.70
46364;DHT22;32071;49.036;9.344;2022-08-21T09:53:52;23.00;96.50
46364;DHT22;32071;49.036;9.344;2022-08-21T09:56:31;23.10;96.80
46364;DHT22;32071;49.036;9.344;2022-08-21T09:59:19;23.20;95.40
46364;DHT22;32071;49.036;9.344;2022-08-21T10:01:51;23.20;95.60
46364;DHT22;32071;49.036;9.344;2022-08-21T10:04:29;23.10;95.50
46364;DHT22;32071;49.036;9.344;2022-08-21T10:06:54;23.20;94.80
46364;DHT22;32071;49.036;9.344;2022-08-21T10:09:30;23.30;93.20
46364;DHT22;32071;49.036;9.344;2022-08-21T10:15:02;23.50;93.60
46364;DHT22;32071;49.036;9.344;2022-08-21T10:17:40;23.50;92.80
46364;DHT22;32071;49.036;9.344;2022-08-21T10:20:34;23.60;93.20
46364;DHT22;32071;49.036;9.344;2022-08-21T10:29:18;24.10;91.40
46364;DHT22;32071;49.036;9.344;2022-08-21T10:32:12;24.10;90.30
46364;DHT22;32071;49.036;9.344;2022-08-21T10:37:41;24.20;90.60
46364;DHT22;32071;49.036;9.344;2022-08-21T10:43:03;24.50;85.20
46364;DHT22;32071;49.036;9.344;2022-08-21T10:48:07;24.50;86.90
46364;DHT22;32071;49.036;9.344;2022-08-21T10:50:51;24.60;87.70
46364;DHT22;32071;49.036;9.344;2022-08-21T10:56:34;24.80;89.30
46364;DHT22;32071;49.036;9.344;2022-08-21T10:59:21;25.00;88.10
46364;DHT22;32071;49.036;9.344;2022-08-21T11:02:11;25.00;88.10
46364;DHT22;32071;49.036;9.344;2022-08-21T11:07:26;25.30;84.30
46364;DHT22;32071;49.036;9.344;2022-08-21T11:09:55;25.50;84.30
46364;DHT22;32071;49.036;9.344;2022-08-21T11:12:31;25.60;85.50
46364;DHT22;32071;49.036;9.344;2022-08-21T11:15:00;25.70;84.90
46364;DHT22;32071;49.036;9.344;2022-08-21T11:17:35;25.80;83.10
46364;DHT22;32071;49.036;9.344;2022-08-21T11:20:13;25.70;82.70
46364;DHT22;32071;49.036;9.344;2022-08-21T11:22:48;25.70;81.80
46364;DHT22;32071;49.036;9.344;2022-08-21T11:25:23;25.60;81.20
46364;DHT22;32071;49.036;9.344;2022-08-21T11:28:00;25.40;81.20
46364;DHT22;32071;49.036;9.344;2022-08-21T11:30:39;25.20;81.60
46364;DHT22;32071;49.036;9.344;2022-08-21T11:35:58;25.40;80.40
46364;DHT22;32071;49.036;9.344;2022-08-21T11:41:42;25.70;76.60
46364;DHT22;32071;49.036;9.344;2022-08-21T11:47:19;26.20;76.50
46364;DHT22;32071;49.036;9.344;2022-08-21T11:52:29;26.20;76.60
46364;DHT22;32071;49.036;9.344;2022-08-21T11:55:37;26.20;77.50
46364;DHT22;32071;49.036;9.344;2022-08-21T11:58:17;26.30;75.30
46364;DHT22;32071;49.036;9.344;2022-08-21T12:00:58;26.30;72.30
46364;DHT22;32071;49.036;9.344;2022-08-21T12:03:41;26.30;69.20
46364;DHT22;32071;49.036;9.344;2022-08-21T12:06:10;26.40;73.70
46364;DHT22;32071;49.036;9.344;2022-08-21T12:08:44;26.40;72.40
46364;DHT22;32071;49.036;9.344;2022-08-21T12:13:59;26.40;71.40
46364;DHT22;32071;49.036;9.344;2022-08-21T12:16:30;26.60;70.60
46364;DHT22;32071;49.036;9.344;2022-08-21T12:24:45;27.10;73.10
46364;DHT22;32071;49.036;9.344;2022-08-21T12:27:29;27.30;69.70
46364;DHT22;32071;49.036;9.344;2022-08-21T12:30:00;27.50;68.70
46364;DHT22;32071;49.036;9.344;2022-08-21T12:36:01;27.60;78.40
46364;DHT22;32071;49.036;9.344;2022-08-21T12:38:13;27.90;70.30
46364;DHT22;32071;49.036;9.344;2022-08-21T12:40:46;27.80;65.70
46364;DHT22;32071;49.036;9.344;2022-08-21T12:43:26;27.80;68.80
46364;DHT22;32071;49.036;9.344;2022-08-21T12:45:53;27.90;69.00
46364;DHT22;32071;49.036;9.344;2022-08-21T12:48:49;28.30;67.60
46364;DHT22;32071;49.036;9.344;2022-08-21T12:51:29;28.40;63.80
46364;DHT22;32071;49.036;9.344;2022-08-21T12:53:58;28.30;66.00
46364;DHT22;32071;49.036;9.344;2022-08-21T12:56:31;28.20;64.60
46364;DHT22;32071;49.036;9.344;2022-08-21T12:59:01;28.20;66.70
46364;DHT22;32071;49.036;9.344;2022-08-21T13:01:32;28.40;63.40
46364;DHT22;32071;49.036;9.344;2022-08-21T13:04:12;28.40;64.80
46364;DHT22;32071;49.036;9.344;2022-08-21T13:06:44;28.50;64.20
46364;DHT22;32071;49.036;9.344;2022-08-21T13:09:15;28.70;64.20
46364;DHT22;32071;49.036;9.344;2022-08-21T13:11:44;28.80;62.80
46364;DHT22;32071;49.036;9.344;2022-08-21T13:14:38;28.80;62.10
46364;DHT22;32071;49.036;9.344;2022-08-21T13:17:06;29.00;58.50
46364;DHT22;32071;49.036;9.344;2022-08-21T13:19:33;29.00;57.90
46364;DHT22;32071;49.036;9.344;2022-08-21T13:22:00;29.00;60.00
46364;DHT22;32071;49.036;9.344;2022-08-21T13:24:29;29.30;59.00
46364;DHT22;32071;49.036;9.344;2022-08-21T13:26:55;29.30;57.80
46364;DHT22;32071;49.036;9.344;2022-08-21T13:29:26;29.30;57.10
46364;DHT22;32071;49.036;9.344;2022-08-21T13:32:18;29.30;60.00
46364;DHT22;32071;49.036;9.344;2022-08-21T13:34:46;29.40;57.00
46364;DHT22;32071;49.036;9.344;2022-08-21T13:37:13;29.30;56.00
46364;DHT22;32071;49.036;9.344;2022-08-21T13:39:39;29.10;54.10
46364;DHT22;32071;49.036;9.344;2022-08-21T13:42:10;29.10;55.50
46364;DHT22;32071;49.036;9.344;2022-08-21T13:44:44;29.10;55.50
46364;DHT22;32071;49.036;9.344;2022-08-21T13:47:14;29.20;58.50
46364;DHT22;32071;49.036;9.344;2022-08-21T13:49:43;29.40;56.50
46364;DHT22;32071;49.036;9.344;2022-08-21T13:54:42;29.60;58.10
46364;DHT22;32071;49.036;9.344;2022-08-21T13:57:39;29.80;57.60
46364;DHT22;32071;49.036;9.344;2022-08-21T14:00:26;30.20;54.70
46364;DHT22;32071;49.036;9.344;2022-08-21T14:02:53;30.70;57.00
46364;DHT22;32071;49.036;9.344;2022-08-21T14:05:26;31.00;56.20
46364;DHT22;32071;49.036;9.344;2022-08-21T14:08:08;30.80;54.50
46364;DHT22;32071;49.036;9.344;2022-08-21T14:10:44;30.40;55.80
46364;DHT22;32071;49.036;9.344;2022-08-21T14:13:38;29.60;54.20
46364;DHT22;32071;49.036;9.344;2022-08-21T14:18:46;29.10;56.40
46364;DHT22;32071;49.036;9.344;2022-08-21T14:21:12;29.00;53.90
46364;DHT22;32071;49.036;9.344;2022-08-21T14:23:39;28.70;56.00
46364;DHT22;32071;49.036;9.344;2022-08-21T14:26:06;28.40;54.00
46364;DHT22;32071;49.036;9.344;2022-08-21T14:28:40;28.80;53.30
46364;DHT22;32071;49.036;9.344;2022-08-21T14:31:21;29.10;51.00
46364;DHT22;32071;49.036;9.344;2022-08-21T14:33:47;29.60;53.00
46364;DHT22;32071;49.036;9.344;2022-08-21T14:36:13;31.40;51.40
46364;DHT22;32071;49.036;9.344;2022-08-21T14:38:40;33.30;49.40
46364;DHT22;32071;49.036;9.344;2022-08-21T14:41:25;35.00;46.30
46364;DHT22;32071;49.036;9.344;2022-08-21T14:43:54;36.30;44.30
46364;DHT22;32071;49.036;9.344;2022-08-21T14:46:26;37.20;43.20
46364;DHT22;32071;49.036;9.344;2022-08-21T14:48:52;37.60;41.50
46364;DHT22;32071;49.036;9.344;2022-08-21T14:51:18;38.00;40.50
46364;DHT22;32071;49.036;9.344;2022-08-21T14:53:44;38.90;38.50
46364;DHT22;32071;49.036;9.344;2022-08-21T14:56:10;40.40;36.20
46364;DHT22;32071;49.036;9.344;2022-08-21T14:58:45;40.80;34.60
46364;DHT22;32071;49.036;9.344;2022-08-21T15:01:13;42.40;34.40
46364;DHT22;32071;49.036;9.344;2022-08-21T15:03:39;42.10;32.00
46364;DHT22;32071;49.036;9.344;2022-08-21T15:06:05;41.40;32.40
46364;DHT22;32071;49.036;9.344;2022-08-21T15:08:31;41.20;33.60
46364;DHT22;32071;49.036;9.344;2022-08-21T15:10:58;41.00;32.20
46364;DHT22;32071;49.036;9.344;2022-08-21T15:13:24;41.50;32.10
46364;DHT22;32071;49.036;9.344;2022-08-21T15:15:50;41.30;32.80
46364;DHT22;32071;49.036;9.344;2022-08-21T15:18:25;41.30;32.30
46364;DHT22;32071;49.036;9.344;2022-08-21T15:20:51;41.30;32.00
46364;DHT22;32071;49.036;9.344;2022-08-21T15:23:17;41.90;30.80
46364;DHT22;32071;49.036;9.344;2022-08-21T15:25:45;42.30;30.20
46364;DHT22;32071;49.036;9.344;2022-08-21T15:28:12;43.40;30.00
46364;DHT22;32071;49.036;9.344;2022-08-21T15:30:39;43.20;29.60
46364;DHT22;32071;49.036;9.344;2022-08-21T15:33:06;43.20;28.40
46364;DHT22;32071;49.036;9.344;2022-08-21T15:35:32;43.80;28.60
46364;DHT22;32071;49.036;9.344;2022-08-21T15:37:57;44.50;27.40
46364;DHT22;32071;49.036;9.344;2022-08-21T15:40:23;44.60;27.80
46364;DHT22;32071;49.036;9.344;2022-08-21T15:42:50;44.10;27.40
46364;DHT22;32071;49.036;9.344;2022-08-21T15:45:18;43.20;27.70
46364;DHT22;32071;49.036;9.344;2022-08-21T15:47:45;42.50;27.90
46364;DHT22;32071;49.036;9.344;2022-08-21T15:50:12;42.50;27.80
46364;DHT22;32071;49.036;9.344;2022-08-21T15:52:38;42.50;27.80
46364;DHT22;32071;49.036;9.344;2022-08-21T15:55:05;42.30;27.40
46364;DHT22;32071;49.036;9.344;2022-08-21T15:57:31;41.30;28.40
46364;DHT22;32071;49.036;9.344;2022-08-21T16:00:03;41.90;28.20
46364;DHT22;32071;49.036;9.344;2022-08-21T16:02:37;41.70;28.90
46364;DHT22;32071;49.036;9.344;2022-08-21T16:05:04;42.50;27.40
46364;DHT22;32071;49.036;9.344;2022-08-21T16:07:29;43.30;28.50
46364;DHT22;32071;49.036;9.344;2022-08-21T16:09:55;43.60;27.00
46364;DHT22;32071;49.036;9.344;2022-08-21T16:12:29;43.20;27.20
46364;DHT22;32071;49.036;9.344;2022-08-21T16:14:58;43.20;26.90
46364;DHT22;32071;49.036;9.344;2022-08-21T16:17:28;42.90;27.10
46364;DHT22;32071;49.036;9.344;2022-08-21T16:19:55;42.50;27.00
46364;DHT22;32071;49.036;9.344;2022-08-21T16:22:21;42.60;26.90
46364;DHT22;32071;49.036;9.344;2022-08-21T16:24:46;42.20;27.00
46364;DHT22;32071;49.036;9.344;2022-08-21T16:27:12;41.40;27.30
46364;DHT22;32071;49.036;9.344;2022-08-21T16:29:39;41.30;27.80
46364;DHT22;32071;49.036;9.344;2022-08-21T16:32:05;42.00;27.20
46364;DHT22;32071;49.036;9.344;2022-08-21T16:34:31;42.70;26.80
46364;DHT22;32071;49.036;9.344;2022-08-21T16:36:58;42.50;28.20
46364;DHT22;32071;49.036;9.344;2022-08-21T16:39:24;42.50;26.50
46364;DHT22;32071;49.036;9.344;2022-08-21T16:41:49;42.10;26.70
46364;DHT22;32071;49.036;9.344;2022-08-21T16:44:17;42.10;26.90
46364;DHT22;32071;49.036;9.344;2022-08-21T16:46:43;41.60;27.50